createdAt,value
2019-02-09T00:02:12.975Z,76684.69
2019-02-09T00:04:43.579Z,76696.83
2019-02-09T00:07:14.032Z,76687.72
2019-02-09T00:09:44.360Z,76699.87
2019-02-09T00:12:17.196Z,76708.98
2019-02-09T00:14:47.554Z,76715.05
2019-02-09T00:17:18.142Z,76727.20
2019-02-09T00:19:48.555Z,76730.23
2019-02-09T00:22:19.027Z,76738.33
2019-02-09T00:24:49.393Z,76741.37
2019-02-09T00:27:19.641Z,76724.16
2019-02-09T00:29:50.015Z,76728.20
2019-02-09T00:32:20.386Z,76730.23
2019-02-09T00:34:50.853Z,76725.17
2019-02-09T00:37:21.240Z,76727.20
2019-02-09T00:39:51.599Z,76721.13
2019-02-09T00:42:22.177Z,76709.98
2019-02-09T00:44:52.574Z,76711.00
2019-02-09T00:47:22.921Z,76707.96
2019-02-09T00:49:53.386Z,76696.83
2019-02-09T00:52:23.783Z,76704.92
2019-02-09T00:54:54.691Z,76700.88
2019-02-09T00:57:25.112Z,76697.84
2019-02-09T00:59:55.545Z,76705.94
2019-02-09T01:02:25.901Z,76709.98
2019-02-09T01:04:56.336Z,76712.02
2019-02-09T01:07:26.805Z,76707.96
2019-02-09T01:09:57.272Z,76715.05
2019-02-09T01:12:27.812Z,76701.89
2019-02-09T01:15:15.662Z,76709.98
2019-02-09T01:17:48.625Z,76708.98
2019-02-09T01:20:23.482Z,76706.95
2019-02-09T01:22:54.691Z,76712.02
2019-02-09T01:25:25.207Z,76716.06
2019-02-09T01:27:55.633Z,76722.13
2019-02-09T01:30:26.677Z,76726.19
2019-02-09T01:32:58.005Z,76720.11
2019-02-09T01:35:28.446Z,76719.09
2019-02-09T01:38:03.985Z,76719.09
2019-02-09T01:40:34.622Z,76727.20
2019-02-09T01:43:05.150Z,76739.34
2019-02-09T01:45:35.460Z,76740.35
2019-02-09T01:48:05.969Z,76730.23
2019-02-09T01:50:36.605Z,76730.23
2019-02-09T01:53:07.162Z,76726.19
2019-02-09T01:55:40.724Z,76739.34
2019-02-09T01:58:22.477Z,76738.33
2019-02-09T02:00:54.849Z,76738.33
2019-02-09T02:03:25.400Z,76743.39
2019-02-09T02:05:55.848Z,76742.38
2019-02-09T02:08:27.184Z,76744.41
2019-02-09T02:11:03.270Z,76743.39
2019-02-09T02:13:33.623Z,76728.20
2019-02-09T02:16:04.293Z,76737.31
2019-02-09T02:18:36.510Z,76730.23
2019-02-09T02:21:06.892Z,76721.13
2019-02-09T02:23:37.343Z,76717.08
2019-02-09T02:26:07.821Z,76712.02
2019-02-09T02:28:40.554Z,76708.98
2019-02-09T02:31:10.910Z,76705.94
2019-02-09T02:33:41.357Z,76687.72
2019-02-09T02:36:12.009Z,76662.42
2019-02-09T02:38:42.468Z,76661.41
2019-02-09T02:41:12.930Z,76649.27
2019-02-09T02:43:46.980Z,76637.11
2019-02-09T02:46:19.704Z,76624.97
2019-02-09T02:48:50.131Z,76611.81
2019-02-09T02:51:21.090Z,76605.73
2019-02-09T02:53:51.464Z,76602.70
2019-02-09T02:56:23.937Z,76600.68
2019-02-09T02:58:54.443Z,76572.34
2019-02-09T03:01:24.969Z,76568.29
2019-02-09T03:03:55.379Z,76578.41
2019-02-09T03:06:25.819Z,76569.30
2019-02-09T03:08:56.336Z,76588.53
2019-02-09T03:11:26.845Z,76589.55
2019-02-09T03:13:57.200Z,76593.59
2019-02-09T03:16:30.746Z,76588.53
2019-02-09T03:19:03.475Z,76597.64
2019-02-09T03:21:33.845Z,76598.66
2019-02-09T03:24:04.591Z,76596.63
2019-02-09T03:26:35.018Z,76602.70
2019-02-09T03:29:05.447Z,76595.62
2019-02-09T03:31:35.868Z,76606.75
2019-02-09T03:34:06.427Z,76589.55
2019-02-09T03:36:38.667Z,76592.58
2019-02-09T03:39:09.353Z,76594.61
2019-02-09T03:41:39.718Z,76596.63
2019-02-09T03:44:10.342Z,76584.48
2019-02-09T03:46:40.776Z,76585.50
2019-02-09T03:49:12.902Z,76598.66
2019-02-09T03:51:45.676Z,76598.66
2019-02-09T03:54:18.442Z,76605.73
2019-02-09T03:56:49.023Z,76590.56
2019-02-09T03:59:20.004Z,76593.59
2019-02-09T04:01:50.427Z,76610.80
2019-02-09T04:04:21.225Z,76608.78
2019-02-09T04:06:51.625Z,76607.77
2019-02-09T04:09:22.047Z,76611.81
2019-02-09T04:11:52.315Z,76591.57
2019-02-09T04:14:22.832Z,76600.68
2019-02-09T04:16:53.196Z,76602.70
2019-02-09T04:19:26.736Z,76614.84
2019-02-09T04:21:57.420Z,76614.84
2019-02-09T04:24:27.825Z,76617.88
2019-02-09T04:27:00.758Z,76615.86
2019-02-09T04:29:31.144Z,76637.11
2019-02-09T04:32:01.559Z,76643.19
2019-02-09T04:34:34.355Z,76650.27
2019-02-09T04:37:04.748Z,76659.38
2019-02-09T04:39:35.115Z,76678.61
2019-02-09T04:42:11.131Z,76684.69
2019-02-09T04:44:41.612Z,76693.80
2019-02-09T04:47:13.542Z,76692.78
2019-02-09T04:49:43.868Z,76697.84
2019-02-09T04:52:14.332Z,76709.98
2019-02-09T04:54:45.606Z,76706.95
2019-02-09T04:57:16.737Z,76704.92
2019-02-09T04:59:47.005Z,76708.98
2019-02-09T05:02:17.571Z,76717.08
2019-02-09T05:04:47.975Z,76716.06
2019-02-09T05:07:18.795Z,76717.08
2019-02-09T05:09:49.220Z,76720.11
2019-02-09T05:12:22.250Z,76701.89
2019-02-09T05:14:52.710Z,76711.00
2019-02-09T05:17:24.552Z,76712.02
2019-02-09T05:19:55.241Z,76713.02
2019-02-09T05:22:25.625Z,76707.96
2019-02-09T05:24:56.053Z,76709.98
2019-02-09T05:27:27.037Z,76714.03
2019-02-09T05:29:58.219Z,76716.06
2019-02-09T05:32:28.627Z,76723.14
2019-02-09T05:35:02.126Z,76726.19
2019-02-09T05:37:32.521Z,76721.13
2019-02-09T05:40:02.963Z,76706.95
2019-02-09T05:42:33.718Z,76706.95
2019-02-09T05:45:04.550Z,76706.95
2019-02-09T05:47:37.018Z,76712.02
2019-02-09T05:50:08.198Z,76715.05
2019-02-09T05:52:39.856Z,76712.02
2019-02-09T05:55:22.489Z,76724.16
2019-02-09T05:57:53.016Z,76725.17
2019-02-09T06:00:34.860Z,76730.23
2019-02-09T06:03:05.372Z,76739.34
2019-02-09T06:05:36.182Z,76754.52
2019-02-09T06:08:07.366Z,76752.50
2019-02-09T06:10:39.053Z,76757.56
2019-02-09T06:13:09.677Z,76758.58
2019-02-09T06:15:40.187Z,76764.64
2019-02-09T06:18:10.818Z,76770.72
2019-02-09T06:20:41.236Z,76784.89
2019-02-09T06:23:11.642Z,76790.96
2019-02-09T06:25:42.867Z,76788.94
2019-02-09T06:28:13.314Z,76790.96
2019-02-09T06:30:43.771Z,76788.94
2019-02-09T06:33:14.305Z,76787.92
2019-02-09T06:35:44.965Z,76780.84
2019-02-09T06:38:18.890Z,76770.72
2019-02-09T06:40:49.387Z,76765.66
2019-02-09T06:43:19.761Z,76769.70
2019-02-09T06:45:50.182Z,76766.67
2019-02-09T06:48:30.333Z,76766.67
2019-02-09T06:51:02.220Z,76756.55
2019-02-09T06:53:34.011Z,76760.59
2019-02-09T06:56:04.755Z,76759.59
2019-02-09T06:58:35.215Z,76771.73
2019-02-09T07:01:06.141Z,76773.75
2019-02-09T07:03:39.840Z,76785.90
2019-02-09T07:06:10.509Z,76782.86
2019-02-09T07:08:41.753Z,76785.90
2019-02-09T07:11:12.428Z,76781.85
2019-02-09T07:13:42.920Z,76778.81
2019-02-09T07:16:13.270Z,76774.77
2019-02-09T07:18:44.154Z,76786.91
2019-02-09T07:21:14.624Z,76802.09
2019-02-09T07:23:45.090Z,76807.16
2019-02-09T07:26:16.220Z,76819.30
2019-02-09T07:28:46.755Z,76806.14
2019-02-09T07:31:19.109Z,76812.22
2019-02-09T07:33:50.266Z,76801.08
2019-02-09T07:36:20.754Z,76786.91
2019-02-09T07:38:51.213Z,76804.12
2019-02-09T07:41:21.601Z,76807.16
2019-02-09T07:43:54.744Z,76817.27
2019-02-09T07:46:25.101Z,76829.42
2019-02-09T07:48:58.556Z,76837.52
2019-02-09T07:51:29.426Z,76843.59
2019-02-09T07:54:01.979Z,76828.41
2019-02-09T07:56:34.396Z,76839.55
2019-02-09T07:59:05.548Z,76838.53
2019-02-09T08:01:36.799Z,76846.63
2019-02-09T08:04:07.191Z,76835.50
2019-02-09T08:06:37.679Z,76833.47
2019-02-09T08:09:14.426Z,76827.40
2019-02-09T08:11:46.865Z,76839.55
2019-02-09T08:14:17.354Z,76835.50
2019-02-09T08:16:48.198Z,76840.56
2019-02-09T08:19:18.610Z,76835.50
2019-02-09T08:21:49.856Z,76838.53
2019-02-09T08:24:25.444Z,76841.57
2019-02-09T08:26:55.859Z,76835.50
2019-02-09T08:29:29.675Z,76831.45
2019-02-09T08:32:00.182Z,76839.55
2019-02-09T08:34:32.114Z,76830.44
2019-02-09T08:37:02.662Z,76830.44
2019-02-09T08:39:36.838Z,76827.40
2019-02-09T08:42:07.297Z,76827.40
2019-02-09T08:44:40.016Z,76826.39
2019-02-09T08:47:10.447Z,76819.30
2019-02-09T08:49:40.831Z,76817.27
2019-02-09T08:52:11.353Z,76801.08
2019-02-09T08:54:41.833Z,76816.27
2019-02-09T08:57:13.672Z,76814.23
2019-02-09T08:59:45.031Z,76815.25
2019-02-09T09:02:20.448Z,76810.19
2019-02-09T09:04:47.908Z,76808.16
2019-02-09T09:07:18.662Z,76810.19
2019-02-09T09:09:49.049Z,76799.06
2019-02-09T09:12:19.411Z,76795.01
2019-02-09T09:14:50.157Z,76797.03
2019-02-09T09:17:20.559Z,76782.86
2019-02-09T09:19:51.075Z,76774.77
2019-02-09T09:22:22.255Z,76796.02
2019-02-09T09:24:52.756Z,76780.84
2019-02-09T09:27:23.162Z,76778.81
2019-02-09T09:29:54.077Z,76775.78
2019-02-09T09:32:28.659Z,76766.67
2019-02-09T09:34:57.091Z,76752.50
2019-02-09T09:37:27.363Z,76749.47
2019-02-09T09:39:57.809Z,76753.52
2019-02-09T09:42:28.408Z,76776.79
2019-02-09T09:44:59.801Z,76796.02
2019-02-09T09:47:30.448Z,76800.07
2019-02-09T09:50:00.915Z,76814.23
2019-02-09T09:52:31.332Z,76809.18
2019-02-09T09:55:01.678Z,76822.34
2019-02-09T09:57:32.126Z,76803.11
2019-02-09T10:00:02.561Z,76787.92
2019-02-09T10:02:36.548Z,76772.74
2019-02-09T10:05:06.400Z,76771.73
2019-02-09T10:07:37.013Z,76767.68
2019-02-09T10:10:08.889Z,76764.64
2019-02-09T10:12:39.502Z,76763.63
2019-02-09T10:15:11.423Z,76754.52
2019-02-09T10:17:41.774Z,76758.58
2019-02-09T10:20:14.183Z,76755.53
2019-02-09T10:22:44.572Z,76758.58
2019-02-09T10:25:15.400Z,76750.48
2019-02-09T10:27:46.388Z,76740.35
2019-02-09T10:30:18.992Z,76736.30
2019-02-09T10:32:49.474Z,76735.30
2019-02-09T10:35:20.405Z,76734.28
2019-02-09T10:37:50.821Z,76736.30
2019-02-09T10:40:23.180Z,76753.52
2019-02-09T10:42:54.334Z,76750.48
2019-02-09T10:45:27.099Z,76727.20
2019-02-09T10:47:57.897Z,76719.09
2019-02-09T10:50:32.924Z,76705.94
2019-02-09T10:53:03.331Z,76687.72
2019-02-09T10:55:33.853Z,76694.80
2019-02-09T10:58:04.600Z,76690.76
2019-02-09T11:00:40.664Z,76689.75
2019-02-09T11:03:11.029Z,76699.87
2019-02-09T11:05:41.360Z,76689.75
2019-02-09T11:08:11.738Z,76689.75
2019-02-09T11:10:42.378Z,76688.73
2019-02-09T11:13:12.741Z,76697.84
2019-02-09T11:15:43.162Z,76670.52
2019-02-09T11:18:13.485Z,76666.47
2019-02-09T11:20:43.875Z,76652.30
2019-02-09T11:23:14.275Z,76634.08
2019-02-09T11:25:44.640Z,76641.16
2019-02-09T11:28:15.029Z,76637.11
2019-02-09T11:30:45.456Z,76658.37
2019-02-09T11:33:15.786Z,76621.94
2019-02-09T11:35:49.314Z,76609.79
2019-02-09T11:38:19.613Z,76626.99
2019-02-09T11:40:50.840Z,76645.21
2019-02-09T11:43:21.210Z,76634.08
2019-02-09T11:45:51.672Z,76632.05
2019-02-09T11:48:22.034Z,76610.80
2019-02-09T11:50:52.479Z,76635.09
2019-02-09T11:53:23.345Z,76628.00
2019-02-09T11:55:53.722Z,76640.16
2019-02-09T11:58:24.040Z,76631.05
2019-02-09T12:00:54.536Z,76635.09
2019-02-09T12:03:25.973Z,76633.06
2019-02-09T12:05:56.340Z,76625.98
2019-02-09T12:08:26.652Z,76629.02
2019-02-09T12:10:57.003Z,76637.11
2019-02-09T12:13:27.385Z,76636.10
2019-02-09T12:15:57.706Z,76631.05
2019-02-09T12:18:28.030Z,76629.02
2019-02-09T12:20:58.493Z,76641.16
2019-02-09T12:23:28.808Z,76655.33
2019-02-09T12:25:59.138Z,76625.98
2019-02-09T12:28:29.586Z,76658.37
2019-02-09T12:31:03.051Z,76663.43
2019-02-09T12:33:34.671Z,76699.87
2019-02-09T12:36:05.578Z,76716.06
2019-02-09T12:38:36.795Z,76735.30
2019-02-09T12:41:07.305Z,76792.98
2019-02-09T12:43:37.841Z,76826.39
2019-02-09T12:46:08.309Z,76837.52
2019-02-09T12:48:38.735Z,76858.78
2019-02-09T12:51:09.211Z,76849.67
2019-02-09T12:53:39.588Z,76830.44
2019-02-09T12:56:09.961Z,76813.23
2019-02-09T12:58:40.414Z,76764.64
2019-02-09T13:01:11.157Z,76746.42
2019-02-09T13:03:41.473Z,76740.35
2019-02-09T13:06:11.861Z,76726.19
2019-02-09T13:08:42.330Z,76697.84
2019-02-09T13:11:12.827Z,76683.67
2019-02-09T13:13:43.213Z,76619.91
2019-02-09T13:16:13.984Z,76576.39
2019-02-09T13:18:44.609Z,76578.41
2019-02-09T13:21:15.205Z,76604.73
2019-02-09T13:23:45.598Z,76600.68
2019-02-09T13:26:16.005Z,76587.52
2019-02-09T13:28:46.358Z,76605.73
2019-02-09T13:31:16.753Z,76619.91
2019-02-09T13:33:47.146Z,76596.63
2019-02-09T13:36:22.584Z,76611.81
2019-02-09T13:38:53.093Z,76595.62
2019-02-09T13:41:23.401Z,76546.03
2019-02-09T13:43:53.791Z,76539.95
2019-02-09T13:46:24.094Z,76550.08
2019-02-09T13:48:54.551Z,76579.42
2019-02-09T13:51:24.936Z,76599.67
2019-02-09T13:53:56.010Z,76607.77
2019-02-09T13:56:27.226Z,76620.92
2019-02-09T13:58:57.694Z,76614.84
2019-02-09T14:01:28.136Z,76621.94
2019-02-09T14:03:58.563Z,76637.11
2019-02-09T14:06:46.898Z,76647.23
2019-02-09T14:09:17.474Z,76681.65
2019-02-09T14:11:48.054Z,76761.61
2019-02-09T14:14:18.547Z,76803.11
2019-02-09T14:16:49.075Z,76837.52
2019-02-09T14:19:19.532Z,76866.88
2019-02-09T14:21:50.016Z,76946.84
2019-02-09T14:24:20.574Z,77003.52
2019-02-09T14:26:51.378Z,77045.02
2019-02-09T14:29:21.731Z,77082.48
2019-02-09T14:31:53.121Z,77130.05
2019-02-09T14:34:23.688Z,77124.98
2019-02-09T14:36:54.138Z,77140.17
2019-02-09T14:39:24.498Z,77132.08
2019-02-09T14:41:55.029Z,77119.93
2019-02-09T14:44:25.519Z,77121.95
2019-02-09T14:46:56.029Z,77119.93
2019-02-09T14:49:26.562Z,77127.02
2019-02-09T14:51:56.973Z,77128.03
2019-02-09T14:54:27.528Z,77118.92
2019-02-09T14:56:57.956Z,77127.02
2019-02-09T14:59:28.363Z,77112.84
2019-02-09T15:01:58.894Z,77110.81
2019-02-09T15:04:30.072Z,77108.80
2019-02-09T15:07:00.839Z,77094.63
2019-02-09T15:09:31.385Z,77092.59
2019-02-09T15:12:01.774Z,77092.59
2019-02-09T15:14:32.177Z,77076.40
2019-02-09T15:17:05.553Z,77067.29
2019-02-09T15:19:39.647Z,77064.25
2019-02-09T15:22:10.177Z,77052.11
2019-02-09T15:24:41.423Z,77040.97
2019-02-09T15:27:11.880Z,77037.94
2019-02-09T15:29:42.286Z,77032.88
2019-02-09T15:32:12.765Z,77022.75
2019-02-09T15:34:45.699Z,77012.63
2019-02-09T15:37:16.129Z,76995.42
2019-02-09T15:39:48.742Z,76976.19
2019-02-09T15:42:19.112Z,76965.05
2019-02-09T15:44:49.589Z,76941.78
2019-02-09T15:47:20.088Z,76934.69
2019-02-09T15:49:50.523Z,76917.48
2019-02-09T15:52:20.946Z,76923.55
2019-02-09T15:54:51.369Z,76914.45
2019-02-09T15:57:21.774Z,76920.52
2019-02-09T15:59:52.158Z,76917.48
2019-02-09T16:02:25.430Z,76899.27
2019-02-09T16:04:56.193Z,76906.34
2019-02-09T16:07:26.634Z,76905.34
2019-02-09T16:09:57.344Z,76919.51
2019-02-09T16:12:28.584Z,76920.52
2019-02-09T16:14:59.042Z,76935.70
2019-02-09T16:17:29.430Z,76946.84
2019-02-09T16:19:59.852Z,76944.81
2019-02-09T16:22:31.595Z,76956.95
2019-02-09T16:25:02.224Z,76946.84
2019-02-09T16:27:32.786Z,76936.72
2019-02-09T16:30:04.410Z,76956.95
2019-02-09T16:32:35.080Z,76953.92
2019-02-09T16:35:09.178Z,76952.91
2019-02-09T16:37:40.317Z,76948.86
2019-02-09T16:40:15.997Z,76942.79
2019-02-09T16:42:47.075Z,76957.97
2019-02-09T16:45:28.897Z,76956.95
2019-02-09T16:48:02.143Z,76965.05
2019-02-09T16:50:38.136Z,76963.03
2019-02-09T16:53:08.801Z,76970.12
2019-02-09T16:55:39.753Z,76967.08
2019-02-09T16:58:10.131Z,76956.95
2019-02-09T17:00:42.119Z,76970.12
2019-02-09T17:03:13.723Z,76969.11
2019-02-09T17:05:45.179Z,76980.23
2019-02-09T17:08:18.555Z,76981.25
2019-02-09T17:10:52.950Z,76992.39
2019-02-09T17:13:24.923Z,76996.44
2019-02-09T17:15:55.349Z,77016.68
2019-02-09T17:18:25.771Z,77003.52
2019-02-09T17:20:56.179Z,76991.38
2019-02-09T17:23:28.199Z,77000.48
2019-02-09T17:26:00.018Z,76993.40
2019-02-09T17:28:31.163Z,76984.29
2019-02-09T17:31:01.538Z,76988.34
2019-02-09T17:33:31.859Z,77010.61
2019-02-09T17:36:02.650Z,77004.53
2019-02-09T17:38:37.944Z,77010.61
2019-02-09T17:41:08.838Z,77017.69
2019-02-09T17:43:39.641Z,77012.63
2019-02-09T17:46:15.735Z,77011.62
2019-02-09T17:48:46.226Z,77019.72
2019-02-09T17:51:16.455Z,77023.77
2019-02-09T17:53:46.894Z,77035.91
2019-02-09T17:56:17.395Z,77031.86
2019-02-09T17:58:47.852Z,77037.94
2019-02-09T18:01:18.163Z,77043.00
2019-02-09T18:03:48.541Z,77050.08
2019-02-09T18:06:18.982Z,77045.02
2019-02-09T18:08:49.450Z,77065.27
2019-02-09T18:11:20.205Z,77070.33
2019-02-09T18:13:50.510Z,77081.46
2019-02-09T18:16:21.424Z,77075.39
2019-02-09T18:18:51.773Z,77083.48
2019-02-09T18:21:22.180Z,77085.52
2019-02-09T18:23:52.571Z,77079.44
2019-02-09T18:26:23.268Z,77078.42
2019-02-09T18:28:53.734Z,77069.31
2019-02-09T18:31:24.245Z,77076.40
2019-02-09T18:33:54.958Z,77078.42
2019-02-09T18:36:25.344Z,77078.42
2019-02-09T18:38:55.736Z,77075.39
2019-02-09T18:41:32.128Z,77073.36
2019-02-09T18:44:02.555Z,77076.40
2019-02-09T18:46:34.203Z,77077.41
2019-02-09T18:49:06.463Z,77081.46
2019-02-09T18:51:37.372Z,77084.50
2019-02-09T18:54:07.872Z,77098.67
2019-02-09T18:56:38.344Z,77099.69
2019-02-09T18:59:08.852Z,77103.73
2019-02-09T19:01:39.230Z,77101.70
2019-02-09T19:04:09.786Z,77102.72
2019-02-09T19:06:40.167Z,77116.89
2019-02-09T19:09:13.959Z,77123.98
2019-02-09T19:11:44.236Z,77119.93
2019-02-09T19:14:14.680Z,77124.98
2019-02-09T19:16:45.123Z,77117.91
2019-02-09T19:19:15.756Z,77111.83
2019-02-09T19:21:46.351Z,77110.81
2019-02-09T19:24:16.855Z,77099.69
2019-02-09T19:26:48.164Z,77108.80
2019-02-09T19:29:18.683Z,77105.75
2019-02-09T19:31:49.423Z,77112.84
2019-02-09T19:34:19.887Z,77124.98
2019-02-09T19:36:50.872Z,77128.03
2019-02-09T19:39:21.292Z,77119.93
2019-02-09T19:41:51.618Z,77135.11
2019-02-09T19:44:22.321Z,77131.06
2019-02-09T19:46:52.603Z,77134.09
2019-02-09T19:49:23.502Z,77133.09
2019-02-09T19:51:53.904Z,77126.00
2019-02-09T19:54:24.649Z,77133.09
2019-02-09T19:56:55.779Z,77134.09
2019-02-09T19:59:26.179Z,77140.17
2019-02-09T20:01:56.840Z,77141.19
2019-02-09T20:04:27.351Z,77151.31
2019-02-09T20:07:00.838Z,77150.30
2019-02-09T20:09:31.608Z,77142.20
2019-02-09T20:12:02.046Z,77129.04
2019-02-09T20:14:33.433Z,77128.03
2019-02-09T20:17:04.084Z,77129.04
2019-02-09T20:19:36.664Z,77120.94
2019-02-09T20:22:07.116Z,77112.84
2019-02-09T20:24:39.753Z,77108.80
2019-02-09T20:27:10.359Z,77098.67
2019-02-09T20:29:40.736Z,77107.78
2019-02-09T20:32:11.165Z,77106.77
2019-02-09T20:34:41.603Z,77102.72
2019-02-09T20:37:11.993Z,77103.73
2019-02-09T20:39:42.400Z,77106.77
2019-02-09T20:42:15.791Z,77107.78
2019-02-09T20:44:46.185Z,77105.75
2019-02-09T20:47:16.674Z,77106.77
2019-02-09T20:49:47.072Z,77088.55
2019-02-09T20:52:17.476Z,77095.63
2019-02-09T20:54:49.475Z,77097.66
2019-02-09T20:57:19.909Z,77085.52
2019-02-09T20:59:52.671Z,77086.52
2019-02-09T21:02:23.161Z,77096.64
2019-02-09T21:04:53.668Z,77091.59
2019-02-09T21:07:24.831Z,77088.55
2019-02-09T21:09:55.369Z,77082.48
2019-02-09T21:12:25.816Z,77080.45
2019-02-09T21:14:56.199Z,77074.38
2019-02-09T21:17:26.604Z,77074.38
2019-02-09T21:19:57.437Z,77079.44
2019-02-09T21:22:27.866Z,77066.28
2019-02-09T21:24:58.243Z,77068.30
2019-02-09T21:27:28.673Z,77068.30
2019-02-09T21:29:59.159Z,77067.29
2019-02-09T21:32:29.611Z,77060.20
2019-02-09T21:35:00.182Z,77066.28
2019-02-09T21:37:30.590Z,77051.09
2019-02-09T21:40:01.086Z,77057.17
2019-02-09T21:42:31.491Z,77051.09
2019-02-09T21:45:02.266Z,77050.08
2019-02-09T21:47:32.697Z,77056.16
2019-02-09T21:50:03.148Z,77053.13
2019-02-09T21:52:33.880Z,77049.07
2019-02-09T21:55:04.845Z,77056.16
2019-02-09T21:57:35.301Z,77055.14
2019-02-09T22:00:19.727Z,77052.11
2019-02-09T22:02:52.374Z,77054.13
2019-02-09T22:05:22.789Z,77060.20
2019-02-09T22:07:53.227Z,77055.14
2019-02-09T22:10:29.193Z,77062.23
2019-02-09T22:12:59.615Z,77059.20
2019-02-09T22:15:37.987Z,77047.05
2019-02-09T22:18:02.399Z,77051.09
2019-02-09T22:20:32.783Z,77052.11
2019-02-09T22:23:03.207Z,77055.14
2019-02-09T22:25:35.066Z,77058.19
2019-02-09T22:28:05.701Z,77054.13
2019-02-09T22:30:36.128Z,77051.09
2019-02-09T22:33:06.571Z,77051.09
2019-02-09T22:35:37.434Z,77049.07
2019-02-09T22:38:07.950Z,77050.08
2019-02-09T22:40:38.880Z,77041.98
2019-02-09T22:43:09.473Z,77037.94
2019-02-09T22:45:40.177Z,77039.96
2019-02-09T22:48:10.846Z,77037.94
2019-02-09T22:50:43.620Z,77030.85
2019-02-09T22:53:16.407Z,77033.89
2019-02-09T22:55:46.897Z,77023.77
2019-02-09T22:58:17.244Z,77015.67
2019-02-09T23:00:53.322Z,77014.66
2019-02-09T23:03:36.674Z,77012.63
2019-02-09T23:06:41.308Z,77002.51
2019-02-09T23:09:15.593Z,76994.41
2019-02-09T23:11:46.145Z,76981.25
2019-02-09T23:14:16.891Z,76981.25
2019-02-09T23:16:48.338Z,76982.27
2019-02-09T23:19:18.883Z,76977.20
2019-02-09T23:21:49.288Z,76975.17
2019-02-09T23:24:22.825Z,76967.08
2019-02-09T23:26:53.285Z,76965.05
2019-02-09T23:29:23.815Z,76965.05
2019-02-09T23:31:54.175Z,76967.08
2019-02-09T23:34:24.632Z,76966.06
2019-02-09T23:36:55.033Z,76958.98
2019-02-09T23:39:25.463Z,76961.01
2019-02-09T23:41:58.014Z,76952.91
2019-02-09T23:44:28.407Z,76952.91
2019-02-09T23:46:58.780Z,76944.81
2019-02-09T23:49:29.281Z,76941.78
2019-02-09T23:51:59.759Z,76936.72
2019-02-09T23:54:30.216Z,76936.72
2019-02-09T23:57:00.957Z,76932.66
2019-02-09T23:59:31.333Z,76931.66
